Terminal Aerodrome Forecast
Issued by NWS Mt. Holly, NJ

Home | Current Version | Previous Version | Text Only | Print | Product List | Glossary On
Versions: 1 2 3 4 5 6 7 8 9 10 11 12 13 14 15 16 17 18 19 20 21 22 23 24 25 26 27
000
FTUS41 KPHI 061815 AAA
TAFTTN
TAF AMD
KTTN 061815Z 0618/0718 05012G25KT 4SM -RA BR OVC015
      TEMPO 0618/0621 1SM -RA BR BKN006 OVC015
     FM070000 05008KT 5SM -DZ BR OVC009
     FM070600 05008KT 4SM -DZ BR OVC004
     FM071700 26008KT P6SM BKN015=

USA.gov is the U.S. government's official web portal to all federal, state and local government web resources and services.